sensor_id;sensor_type;location;lat;lon;timestamp;P1;durP1;ratioP1;P2;durP2;ratioP2
59127;SDS011;44912;52.754;5.994;2023-07-16T11:49:48;10.70;;;3.80;;
59127;SDS011;44912;52.754;5.994;2023-07-16T11:52:14;7.93;;;3.83;;
59127;SDS011;44912;52.754;5.994;2023-07-16T11:54:43;10.40;;;4.07;;
59127;SDS011;44912;52.754;5.994;2023-07-16T11:57:09;12.13;;;4.40;;
59127;SDS011;44912;52.754;5.994;2023-07-16T11:59:34;9.90;;;4.47;;
59127;SDS011;44912;52.754;5.994;2023-07-16T12:02:00;9.55;;;4.35;;
59127;SDS011;44912;52.754;5.994;2023-07-16T12:04:26;10.88;;;4.13;;
59127;SDS011;44912;52.754;5.994;2023-07-16T12:06:52;9.27;;;4.20;;
59127;SDS011;44912;52.754;5.994;2023-07-16T12:09:17;11.05;;;5.00;;
59127;SDS011;44912;52.754;5.994;2023-07-16T12:11:43;10.27;;;4.18;;
59127;SDS011;44912;52.754;5.994;2023-07-16T12:14:08;10.60;;;4.85;;
59127;SDS011;44912;52.754;5.994;2023-07-16T12:16:35;11.23;;;4.32;;
59127;SDS011;44912;52.754;5.994;2023-07-16T12:19:00;10.45;;;4.65;;
59127;SDS011;44912;52.754;5.994;2023-07-16T12:21:26;14.15;;;4.80;;
59127;SDS011;44912;52.754;5.994;2023-07-16T12:23:51;11.13;;;4.00;;
59127;SDS011;44912;52.754;5.994;2023-07-16T12:26:17;9.45;;;4.35;;
59127;SDS011;44912;52.754;5.994;2023-07-16T12:28:42;10.15;;;4.20;;
59127;SDS011;44912;52.754;5.994;2023-07-16T12:31:08;9.82;;;4.35;;
59127;SDS011;44912;52.754;5.994;2023-07-16T12:33:33;9.40;;;4.20;;
59127;SDS011;44912;52.754;5.994;2023-07-16T12:35:59;10.65;;;4.57;;
59127;SDS011;44912;52.754;5.994;2023-07-16T12:38:24;10.85;;;4.32;;
59127;SDS011;44912;52.754;5.994;2023-07-16T12:40:50;9.45;;;4.28;;
59127;SDS011;44912;52.754;5.994;2023-07-16T12:43:16;13.38;;;4.50;;
59127;SDS011;44912;52.754;5.994;2023-07-16T12:45:41;12.40;;;4.78;;
59127;SDS011;44912;52.754;5.994;2023-07-16T12:48:07;10.13;;;4.45;;
59127;SDS011;44912;52.754;5.994;2023-07-16T12:50:32;8.98;;;3.78;;
59127;SDS011;44912;52.754;5.994;2023-07-16T12:52:58;10.35;;;4.13;;
59127;SDS011;44912;52.754;5.994;2023-07-16T12:55:23;9.88;;;3.75;;
59127;SDS011;44912;52.754;5.994;2023-07-16T12:57:49;8.18;;;3.67;;
59127;SDS011;44912;52.754;5.994;2023-07-16T13:00:15;8.68;;;3.83;;
59127;SDS011;44912;52.754;5.994;2023-07-16T13:02:41;10.48;;;3.83;;
59127;SDS011;44912;52.754;5.994;2023-07-16T13:05:06;9.45;;;3.40;;
59127;SDS011;44912;52.754;5.994;2023-07-16T13:07:32;8.95;;;3.10;;
59127;SDS011;44912;52.754;5.994;2023-07-16T13:09:58;10.43;;;3.58;;
59127;SDS011;44912;52.754;5.994;2023-07-16T13:12:24;7.57;;;3.45;;
59127;SDS011;44912;52.754;5.994;2023-07-16T13:14:49;6.65;;;3.08;;
59127;SDS011;44912;52.754;5.994;2023-07-16T13:17:15;9.43;;;3.30;;
59127;SDS011;44912;52.754;5.994;2023-07-16T13:19:42;11.20;;;3.08;;
59127;SDS011;44912;52.754;5.994;2023-07-16T13:22:08;9.00;;;3.05;;
59127;SDS011;44912;52.754;5.994;2023-07-16T13:24:33;9.27;;;3.00;;
59127;SDS011;44912;52.754;5.994;2023-07-16T13:26:59;9.63;;;2.95;;
59127;SDS011;44912;52.754;5.994;2023-07-16T13:29:24;8.23;;;3.22;;
59127;SDS011;44912;52.754;5.994;2023-07-16T13:31:50;8.00;;;2.88;;
59127;SDS011;44912;52.754;5.994;2023-07-16T13:34:15;7.60;;;2.78;;
59127;SDS011;44912;52.754;5.994;2023-07-16T13:36:41;8.07;;;2.58;;
59127;SDS011;44912;52.754;5.994;2023-07-16T13:39:06;9.35;;;2.60;;
59127;SDS011;44912;52.754;5.994;2023-07-16T13:41:32;7.53;;;2.15;;
59127;SDS011;44912;52.754;5.994;2023-07-16T13:43:58;12.57;;;2.42;;
59127;SDS011;44912;52.754;5.994;2023-07-16T13:46:24;13.30;;;2.90;;
59127;SDS011;44912;52.754;5.994;2023-07-16T13:48:49;10.43;;;2.33;;
59127;SDS011;44912;52.754;5.994;2023-07-16T13:51:15;8.35;;;1.90;;
59127;SDS011;44912;52.754;5.994;2023-07-16T13:53:40;10.75;;;2.05;;
59127;SDS011;44912;52.754;5.994;2023-07-16T13:56:06;8.52;;;1.92;;
59127;SDS011;44912;52.754;5.994;2023-07-16T13:58:33;10.50;;;1.98;;
59127;SDS011;44912;52.754;5.994;2023-07-16T14:00:58;10.77;;;2.40;;
59127;SDS011;44912;52.754;5.994;2023-07-16T14:03:24;8.82;;;1.88;;
59127;SDS011;44912;52.754;5.994;2023-07-16T14:05:49;8.48;;;2.05;;
59127;SDS011;44912;52.754;5.994;2023-07-16T14:08:15;9.40;;;1.90;;
59127;SDS011;44912;52.754;5.994;2023-07-16T14:10:41;9.30;;;1.80;;
59127;SDS011;44912;52.754;5.994;2023-07-16T14:13:06;7.25;;;1.90;;
59127;SDS011;44912;52.754;5.994;2023-07-16T14:15:32;11.18;;;2.08;;
59127;SDS011;44912;52.754;5.994;2023-07-16T14:17:57;8.43;;;1.80;;
59127;SDS011;44912;52.754;5.994;2023-07-16T14:20:23;9.25;;;2.20;;
59127;SDS011;44912;52.754;5.994;2023-07-16T14:22:48;10.52;;;1.83;;
59127;SDS011;44912;52.754;5.994;2023-07-16T14:25:14;10.77;;;2.20;;
59127;SDS011;44912;52.754;5.994;2023-07-16T14:27:40;11.13;;;1.90;;
59127;SDS011;44912;52.754;5.994;2023-07-16T14:30:06;13.07;;;2.20;;
59127;SDS011;44912;52.754;5.994;2023-07-16T14:32:33;8.57;;;1.83;;
59127;SDS011;44912;52.754;5.994;2023-07-16T14:34:59;10.70;;;1.90;;
59127;SDS011;44912;52.754;5.994;2023-07-16T14:37:25;12.85;;;2.20;;
59127;SDS011;44912;52.754;5.994;2023-07-16T14:39:51;8.70;;;2.17;;
59127;SDS011;44912;52.754;5.994;2023-07-16T14:42:17;11.20;;;2.40;;
59127;SDS011;44912;52.754;5.994;2023-07-16T14:44:42;13.82;;;2.22;;
59127;SDS011;44912;52.754;5.994;2023-07-16T14:47:08;15.48;;;2.67;;
59127;SDS011;44912;52.754;5.994;2023-07-16T14:49:33;10.25;;;2.63;;
59127;SDS011;44912;52.754;5.994;2023-07-16T14:51:59;10.63;;;2.35;;
59127;SDS011;44912;52.754;5.994;2023-07-16T14:54:25;12.43;;;2.42;;
59127;SDS011;44912;52.754;5.994;2023-07-16T14:56:50;9.05;;;2.25;;
59127;SDS011;44912;52.754;5.994;2023-07-16T14:59:16;9.70;;;1.90;;
59127;SDS011;44912;52.754;5.994;2023-07-16T15:01:42;12.35;;;2.20;;
59127;SDS011;44912;52.754;5.994;2023-07-16T15:04:08;10.30;;;2.30;;
59127;SDS011;44912;52.754;5.994;2023-07-16T15:06:34;11.77;;;2.20;;
59127;SDS011;44912;52.754;5.994;2023-07-16T15:08:59;11.25;;;2.80;;
59127;SDS011;44912;52.754;5.994;2023-07-16T15:11:25;12.80;;;2.38;;
59127;SDS011;44912;52.754;5.994;2023-07-16T15:13:50;9.95;;;2.20;;
59127;SDS011;44912;52.754;5.994;2023-07-16T15:16:16;9.57;;;2.05;;
59127;SDS011;44912;52.754;5.994;2023-07-16T15:18:41;11.10;;;2.08;;
59127;SDS011;44912;52.754;5.994;2023-07-16T15:21:08;10.13;;;1.95;;
59127;SDS011;44912;52.754;5.994;2023-07-16T15:23:33;10.00;;;2.08;;
59127;SDS011;44912;52.754;5.994;2023-07-16T15:26:03;6.93;;;1.83;;
59127;SDS011;44912;52.754;5.994;2023-07-16T15:28:31;10.50;;;2.15;;
59127;SDS011;44912;52.754;5.994;2023-07-16T15:30:59;12.32;;;2.22;;
59127;SDS011;44912;52.754;5.994;2023-07-16T15:33:25;9.60;;;1.80;;
59127;SDS011;44912;52.754;5.994;2023-07-16T15:35:51;11.13;;;2.20;;
59127;SDS011;44912;52.754;5.994;2023-07-16T15:38:16;10.50;;;1.95;;
59127;SDS011;44912;52.754;5.994;2023-07-16T15:40:42;12.73;;;1.95;;
59127;SDS011;44912;52.754;5.994;2023-07-16T15:43:08;10.50;;;2.30;;
59127;SDS011;44912;52.754;5.994;2023-07-16T15:45:34;9.95;;;2.08;;
59127;SDS011;44912;52.754;5.994;2023-07-16T15:47:59;10.85;;;2.08;;
59127;SDS011;44912;52.754;5.994;2023-07-16T15:50:26;13.57;;;2.55;;
59127;SDS011;44912;52.754;5.994;2023-07-16T15:52:53;10.30;;;2.03;;
59127;SDS011;44912;52.754;5.994;2023-07-16T15:55:20;9.45;;;2.10;;
59127;SDS011;44912;52.754;5.994;2023-07-16T15:57:47;8.18;;;1.83;;
59127;SDS011;44912;52.754;5.994;2023-07-16T16:00:14;9.18;;;1.88;;
59127;SDS011;44912;52.754;5.994;2023-07-16T16:02:46;11.13;;;2.35;;
59127;SDS011;44912;52.754;5.994;2023-07-16T16:05:13;10.80;;;2.28;;
59127;SDS011;44912;52.754;5.994;2023-07-16T16:07:41;9.82;;;1.85;;
59127;SDS011;44912;52.754;5.994;2023-07-16T16:10:09;9.48;;;2.28;;
59127;SDS011;44912;52.754;5.994;2023-07-16T16:12:35;10.55;;;1.95;;
59127;SDS011;44912;52.754;5.994;2023-07-16T16:15:01;11.10;;;2.00;;
59127;SDS011;44912;52.754;5.994;2023-07-16T16:17:26;11.43;;;1.90;;
59127;SDS011;44912;52.754;5.994;2023-07-16T16:19:52;9.70;;;2.10;;
59127;SDS011;44912;52.754;5.994;2023-07-16T16:22:17;12.02;;;2.33;;
59127;SDS011;44912;52.754;5.994;2023-07-16T16:24:43;8.95;;;1.95;;
59127;SDS011;44912;52.754;5.994;2023-07-16T16:27:08;9.05;;;1.90;;
59127;SDS011;44912;52.754;5.994;2023-07-16T16:29:34;11.40;;;2.40;;
59127;SDS011;44912;52.754;5.994;2023-07-16T16:31:59;12.60;;;2.47;;
59127;SDS011;44912;52.754;5.994;2023-07-16T16:34:25;9.80;;;2.03;;
59127;SDS011;44912;52.754;5.994;2023-07-16T16:36:51;12.05;;;2.30;;
59127;SDS011;44912;52.754;5.994;2023-07-16T16:39:16;9.23;;;1.95;;
59127;SDS011;44912;52.754;5.994;2023-07-16T16:41:42;12.07;;;2.25;;
59127;SDS011;44912;52.754;5.994;2023-07-16T16:44:08;10.57;;;2.35;;
59127;SDS011;44912;52.754;5.994;2023-07-16T16:46:33;10.88;;;2.40;;
59127;SDS011;44912;52.754;5.994;2023-07-16T16:48:59;8.48;;;2.20;;
59127;SDS011;44912;52.754;5.994;2023-07-16T16:51:26;10.57;;;2.10;;
59127;SDS011;44912;52.754;5.994;2023-07-16T16:53:51;10.10;;;2.22;;
59127;SDS011;44912;52.754;5.994;2023-07-16T16:56:17;10.48;;;2.25;;
59127;SDS011;44912;52.754;5.994;2023-07-16T16:58:42;11.60;;;2.70;;
59127;SDS011;44912;52.754;5.994;2023-07-16T17:01:08;10.07;;;2.28;;
59127;SDS011;44912;52.754;5.994;2023-07-16T17:03:34;12.65;;;2.42;;
59127;SDS011;44912;52.754;5.994;2023-07-16T17:05:59;13.57;;;2.47;;
59127;SDS011;44912;52.754;5.994;2023-07-16T17:08:25;9.40;;;2.40;;
59127;SDS011;44912;52.754;5.994;2023-07-16T17:10:54;11.07;;;2.55;;
59127;SDS011;44912;52.754;5.994;2023-07-16T17:13:21;16.90;;;3.88;;
59127;SDS011;44912;52.754;5.994;2023-07-16T17:15:47;10.38;;;3.00;;
59127;SDS011;44912;52.754;5.994;2023-07-16T17:18:13;14.60;;;2.90;;
59127;SDS011;44912;52.754;5.994;2023-07-16T17:20:38;11.60;;;2.40;;
59127;SDS011;44912;52.754;5.994;2023-07-16T17:23:04;9.65;;;2.28;;
59127;SDS011;44912;52.754;5.994;2023-07-16T17:25:30;12.38;;;2.80;;
59127;SDS011;44912;52.754;5.994;2023-07-16T17:27:56;14.65;;;2.83;;
59127;SDS011;44912;52.754;5.994;2023-07-16T17:30:22;13.80;;;2.97;;
59127;SDS011;44912;52.754;5.994;2023-07-16T17:32:48;14.25;;;3.40;;
59127;SDS011;44912;52.754;5.994;2023-07-16T17:35:14;11.07;;;2.60;;
59127;SDS011;44912;52.754;5.994;2023-07-16T17:37:39;14.07;;;3.50;;
59127;SDS011;44912;52.754;5.994;2023-07-16T17:40:05;10.75;;;2.47;;
59127;SDS011;44912;52.754;5.994;2023-07-16T17:42:31;10.73;;;2.42;;
59127;SDS011;44912;52.754;5.994;2023-07-16T17:44:57;13.10;;;2.70;;
59127;SDS011;44912;52.754;5.994;2023-07-16T17:47:22;15.13;;;3.25;;
59127;SDS011;44912;52.754;5.994;2023-07-16T17:49:48;12.07;;;3.15;;
59127;SDS011;44912;52.754;5.994;2023-07-16T17:52:13;13.30;;;2.80;;
59127;SDS011;44912;52.754;5.994;2023-07-16T17:54:39;10.52;;;2.67;;
59127;SDS011;44912;52.754;5.994;2023-07-16T17:57:05;16.27;;;2.97;;
59127;SDS011;44912;52.754;5.994;2023-07-16T17:59:30;13.85;;;2.97;;
59127;SDS011;44912;52.754;5.994;2023-07-16T18:01:56;11.00;;;2.78;;
59127;SDS011;44912;52.754;5.994;2023-07-16T18:04:22;13.48;;;3.03;;
59127;SDS011;44912;52.754;5.994;2023-07-16T18:06:47;10.18;;;2.50;;
59127;SDS011;44912;52.754;5.994;2023-07-16T18:09:13;10.50;;;2.35;;
59127;SDS011;44912;52.754;5.994;2023-07-16T18:11:39;8.85;;;2.13;;
59127;SDS011;44912;52.754;5.994;2023-07-16T18:14:09;9.38;;;2.08;;
59127;SDS011;44912;52.754;5.994;2023-07-16T18:16:39;9.52;;;2.00;;
59127;SDS011;44912;52.754;5.994;2023-07-16T18:19:05;10.27;;;2.20;;
59127;SDS011;44912;52.754;5.994;2023-07-16T18:21:31;8.13;;;2.60;;
59127;SDS011;44912;52.754;5.994;2023-07-16T18:23:57;8.65;;;2.42;;
59127;SDS011;44912;52.754;5.994;2023-07-16T18:26:23;9.93;;;2.20;;
59127;SDS011;44912;52.754;5.994;2023-07-16T18:28:48;8.27;;;1.73;;
59127;SDS011;44912;52.754;5.994;2023-07-16T18:31:14;9.90;;;2.10;;
59127;SDS011;44912;52.754;5.994;2023-07-16T18:33:40;9.55;;;2.10;;
59127;SDS011;44912;52.754;5.994;2023-07-16T18:36:05;9.57;;;2.10;;
59127;SDS011;44912;52.754;5.994;2023-07-16T18:38:31;10.90;;;1.98;;
59127;SDS011;44912;52.754;5.994;2023-07-16T18:40:57;8.35;;;2.20;;
59127;SDS011;44912;52.754;5.994;2023-07-16T18:43:23;9.15;;;2.22;;
59127;SDS011;44912;52.754;5.994;2023-07-16T18:45:49;6.88;;;1.80;;
59127;SDS011;44912;52.754;5.994;2023-07-16T18:48:15;8.88;;;1.52;;
59127;SDS011;44912;52.754;5.994;2023-07-16T18:50:41;9.75;;;2.10;;
59127;SDS011;44912;52.754;5.994;2023-07-16T18:53:07;8.85;;;1.92;;
59127;SDS011;44912;52.754;5.994;2023-07-16T18:55:33;7.70;;;1.92;;
59127;SDS011;44912;52.754;5.994;2023-07-16T18:57:58;10.00;;;1.80;;
59127;SDS011;44912;52.754;5.994;2023-07-16T19:00:24;10.35;;;1.80;;
59127;SDS011;44912;52.754;5.994;2023-07-16T19:02:50;10.73;;;2.08;;
59127;SDS011;44912;52.754;5.994;2023-07-16T19:05:17;13.05;;;2.72;;
59127;SDS011;44912;52.754;5.994;2023-07-16T19:07:42;10.35;;;2.40;;
59127;SDS011;44912;52.754;5.994;2023-07-16T19:10:09;8.90;;;2.00;;
59127;SDS011;44912;52.754;5.994;2023-07-16T19:12:34;8.65;;;2.05;;
59127;SDS011;44912;52.754;5.994;2023-07-16T19:15:00;8.93;;;1.90;;
59127;SDS011;44912;52.754;5.994;2023-07-16T19:17:28;10.43;;;2.00;;
59127;SDS011;44912;52.754;5.994;2023-07-16T19:19:55;9.00;;;2.15;;
59127;SDS011;44912;52.754;5.994;2023-07-16T19:22:24;8.77;;;2.30;;
59127;SDS011;44912;52.754;5.994;2023-07-16T19:24:51;13.50;;;2.92;;
59127;SDS011;44912;52.754;5.994;2023-07-16T19:27:17;10.32;;;2.58;;
59127;SDS011;44912;52.754;5.994;2023-07-16T19:29:43;7.95;;;2.20;;
59127;SDS011;44912;52.754;5.994;2023-07-16T19:32:09;10.68;;;2.17;;
59127;SDS011;44912;52.754;5.994;2023-07-16T19:34:35;8.73;;;2.03;;
59127;SDS011;44912;52.754;5.994;2023-07-16T19:37:01;8.55;;;1.73;;
59127;SDS011;44912;52.754;5.994;2023-07-16T19:39:29;9.73;;;2.15;;
59127;SDS011;44912;52.754;5.994;2023-07-16T19:41:56;9.25;;;2.05;;
59127;SDS011;44912;52.754;5.994;2023-07-16T19:44:22;10.60;;;1.98;;
59127;SDS011;44912;52.754;5.994;2023-07-16T19:46:47;9.43;;;2.22;;
59127;SDS011;44912;52.754;5.994;2023-07-16T19:49:13;10.60;;;2.30;;
59127;SDS011;44912;52.754;5.994;2023-07-16T19:51:38;10.73;;;2.17;;
59127;SDS011;44912;52.754;5.994;2023-07-16T19:54:04;10.68;;;2.03;;
59127;SDS011;44912;52.754;5.994;2023-07-16T19:56:30;9.27;;;2.05;;
59127;SDS011;44912;52.754;5.994;2023-07-16T19:58:56;12.48;;;2.10;;
59127;SDS011;44912;52.754;5.994;2023-07-16T20:01:21;8.48;;;1.80;;
59127;SDS011;44912;52.754;5.994;2023-07-16T20:03:47;11.10;;;2.08;;
59127;SDS011;44912;52.754;5.994;2023-07-16T20:06:12;9.00;;;2.03;;
59127;SDS011;44912;52.754;5.994;2023-07-16T20:08:38;9.52;;;2.13;;
59127;SDS011;44912;52.754;5.994;2023-07-16T20:11:05;10.90;;;2.42;;
59127;SDS011;44912;52.754;5.994;2023-07-16T20:13:30;10.10;;;2.30;;
59127;SDS011;44912;52.754;5.994;2023-07-16T20:15:56;9.68;;;2.30;;
59127;SDS011;44912;52.754;5.994;2023-07-16T20:18:21;12.05;;;2.25;;
59127;SDS011;44912;52.754;5.994;2023-07-16T20:20:47;11.23;;;2.10;;
59127;SDS011;44912;52.754;5.994;2023-07-16T20:23:12;8.38;;;2.00;;
59127;SDS011;44912;52.754;5.994;2023-07-16T20:25:38;10.23;;;2.15;;
59127;SDS011;44912;52.754;5.994;2023-07-16T20:28:09;10.63;;;2.00;;
59127;SDS011;44912;52.754;5.994;2023-07-16T20:30:39;6.82;;;2.00;;
59127;SDS011;44912;52.754;5.994;2023-07-16T20:33:06;10.38;;;2.38;;
59127;SDS011;44912;52.754;5.994;2023-07-16T20:35:32;8.70;;;1.80;;
59127;SDS011;44912;52.754;5.994;2023-07-16T20:37:58;11.02;;;2.17;;
59127;SDS011;44912;52.754;5.994;2023-07-16T20:40:23;8.43;;;1.90;;
59127;SDS011;44912;52.754;5.994;2023-07-16T20:42:49;9.43;;;2.17;;
59127;SDS011;44912;52.754;5.994;2023-07-16T20:45:15;9.80;;;2.10;;
59127;SDS011;44912;52.754;5.994;2023-07-16T20:47:45;7.18;;;1.70;;
59127;SDS011;44912;52.754;5.994;2023-07-16T20:50:12;7.30;;;1.85;;
59127;SDS011;44912;52.754;5.994;2023-07-16T20:52:39;10.73;;;2.40;;
59127;SDS011;44912;52.754;5.994;2023-07-16T20:55:07;7.25;;;1.85;;
59127;SDS011;44912;52.754;5.994;2023-07-16T20:57:33;8.80;;;2.17;;
59127;SDS011;44912;52.754;5.994;2023-07-16T20:59:59;10.18;;;1.85;;
59127;SDS011;44912;52.754;5.994;2023-07-16T21:02:24;9.93;;;1.90;;
59127;SDS011;44912;52.754;5.994;2023-07-16T21:04:50;7.95;;;2.58;;
59127;SDS011;44912;52.754;5.994;2023-07-16T21:07:16;8.73;;;2.30;;
59127;SDS011;44912;52.754;5.994;2023-07-16T21:09:41;9.15;;;2.28;;
59127;SDS011;44912;52.754;5.994;2023-07-16T21:12:07;10.20;;;1.95;;
59127;SDS011;44912;52.754;5.994;2023-07-16T21:14:32;11.30;;;2.03;;
59127;SDS011;44912;52.754;5.994;2023-07-16T21:16:58;8.75;;;1.98;;
59127;SDS011;44912;52.754;5.994;2023-07-16T21:19:23;9.32;;;2.42;;
59127;SDS011;44912;52.754;5.994;2023-07-16T21:21:49;8.98;;;2.00;;
59127;SDS011;44912;52.754;5.994;2023-07-16T21:24:14;6.60;;;1.83;;
59127;SDS011;44912;52.754;5.994;2023-07-16T21:26:40;8.90;;;2.00;;
59127;SDS011;44912;52.754;5.994;2023-07-16T21:29:07;8.38;;;2.08;;
59127;SDS011;44912;52.754;5.994;2023-07-16T21:31:33;10.88;;;2.60;;
59127;SDS011;44912;52.754;5.994;2023-07-16T21:33:58;9.98;;;2.22;;
59127;SDS011;44912;52.754;5.994;2023-07-16T21:36:24;7.55;;;2.08;;
59127;SDS011;44912;52.754;5.994;2023-07-16T21:38:51;7.88;;;2.00;;
59127;SDS011;44912;52.754;5.994;2023-07-16T21:41:16;10.50;;;2.55;;
59127;SDS011;44912;52.754;5.994;2023-07-16T21:43:42;10.63;;;2.58;;
59127;SDS011;44912;52.754;5.994;2023-07-16T21:46:07;10.02;;;2.42;;
59127;SDS011;44912;52.754;5.994;2023-07-16T21:48:33;9.35;;;2.55;;
59127;SDS011;44912;52.754;5.994;2023-07-16T21:50:58;9.52;;;2.15;;
59127;SDS011;44912;52.754;5.994;2023-07-16T21:53:25;9.60;;;2.42;;
59127;SDS011;44912;52.754;5.994;2023-07-16T21:55:51;9.20;;;2.40;;
59127;SDS011;44912;52.754;5.994;2023-07-16T21:58:16;6.78;;;1.95;;
59127;SDS011;44912;52.754;5.994;2023-07-16T22:00:42;9.55;;;2.38;;
59127;SDS011;44912;52.754;5.994;2023-07-16T22:03:07;7.80;;;1.92;;
59127;SDS011;44912;52.754;5.994;2023-07-16T22:05:33;8.90;;;1.95;;
59127;SDS011;44912;52.754;5.994;2023-07-16T22:07:58;11.90;;;2.50;;
59127;SDS011;44912;52.754;5.994;2023-07-16T22:10:24;9.75;;;2.50;;
59127;SDS011;44912;52.754;5.994;2023-07-16T22:12:49;8.90;;;2.50;;
59127;SDS011;44912;52.754;5.994;2023-07-16T22:15:15;11.82;;;2.70;;
59127;SDS011;44912;52.754;5.994;2023-07-16T22:17:40;12.13;;;2.70;;
59127;SDS011;44912;52.754;5.994;2023-07-16T22:20:06;11.90;;;2.72;;
59127;SDS011;44912;52.754;5.994;2023-07-16T22:22:35;9.68;;;2.45;;
59127;SDS011;44912;52.754;5.994;2023-07-16T22:25:01;8.95;;;2.38;;
59127;SDS011;44912;52.754;5.994;2023-07-16T22:27:27;10.40;;;2.85;;
59127;SDS011;44912;52.754;5.994;2023-07-16T22:29:52;8.52;;;2.30;;
59127;SDS011;44912;52.754;5.994;2023-07-16T22:32:18;7.43;;;2.22;;
59127;SDS011;44912;52.754;5.994;2023-07-16T22:34:43;9.07;;;2.40;;
59127;SDS011;44912;52.754;5.994;2023-07-16T22:37:09;9.05;;;2.30;;
59127;SDS011;44912;52.754;5.994;2023-07-16T22:39:35;9.50;;;2.28;;
59127;SDS011;44912;52.754;5.994;2023-07-16T22:42:00;9.75;;;2.35;;
59127;SDS011;44912;52.754;5.994;2023-07-16T22:44:26;14.75;;;2.58;;
59127;SDS011;44912;52.754;5.994;2023-07-16T22:46:51;10.00;;;2.70;;
59127;SDS011;44912;52.754;5.994;2023-07-16T22:49:17;10.02;;;3.25;;
59127;SDS011;44912;52.754;5.994;2023-07-16T22:51:43;12.00;;;3.13;;
59127;SDS011;44912;52.754;5.994;2023-07-16T22:54:08;11.73;;;3.15;;
59127;SDS011;44912;52.754;5.994;2023-07-16T22:56:34;10.55;;;3.10;;
59127;SDS011;44912;52.754;5.994;2023-07-16T22:59:00;10.70;;;3.28;;
59127;SDS011;44912;52.754;5.994;2023-07-16T23:01:26;11.25;;;3.55;;
59127;SDS011;44912;52.754;5.994;2023-07-16T23:03:52;12.50;;;3.85;;
59127;SDS011;44912;52.754;5.994;2023-07-16T23:06:17;12.02;;;3.42;;
59127;SDS011;44912;52.754;5.994;2023-07-16T23:08:43;13.30;;;3.30;;
59127;SDS011;44912;52.754;5.994;2023-07-16T23:11:08;11.35;;;2.80;;
59127;SDS011;44912;52.754;5.994;2023-07-16T23:13:34;12.02;;;3.20;;
59127;SDS011;44912;52.754;5.994;2023-07-16T23:16:00;9.82;;;2.80;;
59127;SDS011;44912;52.754;5.994;2023-07-16T23:18:25;18.35;;;3.25;;
59127;SDS011;44912;52.754;5.994;2023-07-16T23:20:52;9.98;;;2.80;;
59127;SDS011;44912;52.754;5.994;2023-07-16T23:23:18;12.82;;;2.97;;
59127;SDS011;44912;52.754;5.994;2023-07-16T23:25:44;10.82;;;2.72;;
59127;SDS011;44912;52.754;5.994;2023-07-16T23:28:09;12.10;;;3.08;;
59127;SDS011;44912;52.754;5.994;2023-07-16T23:30:35;11.95;;;2.67;;
59127;SDS011;44912;52.754;5.994;2023-07-16T23:33:02;11.23;;;3.08;;
59127;SDS011;44912;52.754;5.994;2023-07-16T23:35:28;14.05;;;2.88;;
59127;SDS011;44912;52.754;5.994;2023-07-16T23:37:54;10.75;;;2.50;;
59127;SDS011;44912;52.754;5.994;2023-07-16T23:40:20;11.48;;;2.50;;
59127;SDS011;44912;52.754;5.994;2023-07-16T23:42:46;11.75;;;3.05;;
59127;SDS011;44912;52.754;5.994;2023-07-16T23:45:13;14.00;;;2.60;;
59127;SDS011;44912;52.754;5.994;2023-07-16T23:47:39;13.50;;;2.50;;
59127;SDS011;44912;52.754;5.994;2023-07-16T23:50:05;13.73;;;3.25;;
59127;SDS011;44912;52.754;5.994;2023-07-16T23:52:31;11.20;;;2.60;;
59127;SDS011;44912;52.754;5.994;2023-07-16T23:54:57;13.90;;;3.13;;
59127;SDS011;44912;52.754;5.994;2023-07-16T23:57:22;13.48;;;3.08;;
59127;SDS011;44912;52.754;5.994;2023-07-16T23:59:48;10.43;;;2.33;;
